sensor_id;sensor_type;location;lat;lon;timestamp;P1;durP1;ratioP1;P2;durP2;ratioP2
31978;SDS011;18502;43.574;1.276;2022-11-18T00:01:12;12.23;;;2.00;;
31978;SDS011;18502;43.574;1.276;2022-11-18T00:03:43;15.75;;;1.75;;
31978;SDS011;18502;43.574;1.276;2022-11-18T00:06:10;14.77;;;2.47;;
31978;SDS011;18502;43.574;1.276;2022-11-18T00:08:37;9.70;;;1.75;;
31978;SDS011;18502;43.574;1.276;2022-11-18T00:14:25;18.80;;;2.88;;
31978;SDS011;18502;43.574;1.276;2022-11-18T00:16:55;10.15;;;1.98;;
31978;SDS011;18502;43.574;1.276;2022-11-18T00:19:24;10.82;;;2.05;;
31978;SDS011;18502;43.574;1.276;2022-11-18T00:21:52;8.38;;;1.70;;
31978;SDS011;18502;43.574;1.276;2022-11-18T00:24:19;9.52;;;1.38;;
31978;SDS011;18502;43.574;1.276;2022-11-18T00:26:45;8.98;;;1.50;;
31978;SDS011;18502;43.574;1.276;2022-11-18T00:29:11;16.80;;;1.70;;
31978;SDS011;18502;43.574;1.276;2022-11-18T00:31:37;12.40;;;1.48;;
31978;SDS011;18502;43.574;1.276;2022-11-18T00:34:03;11.52;;;1.55;;
31978;SDS011;18502;43.574;1.276;2022-11-18T00:36:29;17.02;;;2.08;;
31978;SDS011;18502;43.574;1.276;2022-11-18T00:38:56;12.32;;;1.40;;
31978;SDS011;18502;43.574;1.276;2022-11-18T00:41:21;12.82;;;1.58;;
31978;SDS011;18502;43.574;1.276;2022-11-18T00:43:47;8.43;;;1.70;;
31978;SDS011;18502;43.574;1.276;2022-11-18T00:46:13;10.68;;;1.50;;
31978;SDS011;18502;43.574;1.276;2022-11-18T00:48:39;10.23;;;1.48;;
31978;SDS011;18502;43.574;1.276;2022-11-18T00:51:09;16.08;;;2.55;;
31978;SDS011;18502;43.574;1.276;2022-11-18T00:53:38;12.38;;;1.30;;
31978;SDS011;18502;43.574;1.276;2022-11-18T00:56:04;13.70;;;1.60;;
31978;SDS011;18502;43.574;1.276;2022-11-18T00:58:30;6.57;;;1.70;;
31978;SDS011;18502;43.574;1.276;2022-11-18T01:00:56;7.90;;;1.30;;
31978;SDS011;18502;43.574;1.276;2022-11-18T01:03:22;10.93;;;2.10;;
31978;SDS011;18502;43.574;1.276;2022-11-18T01:05:49;12.93;;;1.48;;
31978;SDS011;18502;43.574;1.276;2022-11-18T01:08:15;14.07;;;1.52;;
31978;SDS011;18502;43.574;1.276;2022-11-18T01:10:42;10.55;;;1.42;;
31978;SDS011;18502;43.574;1.276;2022-11-18T01:13:12;17.73;;;1.70;;
31978;SDS011;18502;43.574;1.276;2022-11-18T01:15:51;14.73;;;2.00;;
31978;SDS011;18502;43.574;1.276;2022-11-18T01:18:17;7.90;;;1.10;;
31978;SDS011;18502;43.574;1.276;2022-11-18T01:20:45;8.80;;;1.73;;
31978;SDS011;18502;43.574;1.276;2022-11-18T01:23:11;7.78;;;1.15;;
31978;SDS011;18502;43.574;1.276;2022-11-18T01:25:39;12.95;;;1.83;;
31978;SDS011;18502;43.574;1.276;2022-11-18T01:28:06;8.82;;;2.80;;
31978;SDS011;18502;43.574;1.276;2022-11-18T01:30:32;15.95;;;1.90;;
31978;SDS011;18502;43.574;1.276;2022-11-18T01:33:00;7.97;;;1.25;;
31978;SDS011;18502;43.574;1.276;2022-11-18T01:35:26;6.40;;;1.40;;
31978;SDS011;18502;43.574;1.276;2022-11-18T01:37:52;8.95;;;1.27;;
31978;SDS011;18502;43.574;1.276;2022-11-18T01:40:18;7.63;;;1.20;;
31978;SDS011;18502;43.574;1.276;2022-11-18T01:42:43;6.53;;;1.65;;
31978;SDS011;18502;43.574;1.276;2022-11-18T01:45:20;13.00;;;1.40;;
31978;SDS011;18502;43.574;1.276;2022-11-18T01:48:00;12.27;;;1.52;;
31978;SDS011;18502;43.574;1.276;2022-11-18T01:50:30;6.05;;;0.88;;
31978;SDS011;18502;43.574;1.276;2022-11-18T01:53:01;11.52;;;1.42;;
31978;SDS011;18502;43.574;1.276;2022-11-18T01:55:32;8.30;;;1.20;;
31978;SDS011;18502;43.574;1.276;2022-11-18T01:58:06;6.93;;;1.67;;
31978;SDS011;18502;43.574;1.276;2022-11-18T02:00:37;10.93;;;1.52;;
31978;SDS011;18502;43.574;1.276;2022-11-18T02:03:03;9.60;;;1.20;;
31978;SDS011;18502;43.574;1.276;2022-11-18T02:05:29;7.97;;;1.17;;
31978;SDS011;18502;43.574;1.276;2022-11-18T02:07:57;10.32;;;1.30;;
31978;SDS011;18502;43.574;1.276;2022-11-18T02:10:25;11.73;;;1.70;;
31978;SDS011;18502;43.574;1.276;2022-11-18T02:12:51;8.43;;;2.08;;
31978;SDS011;18502;43.574;1.276;2022-11-18T02:15:25;8.32;;;1.08;;
31978;SDS011;18502;43.574;1.276;2022-11-18T02:20:55;12.32;;;1.58;;
31978;SDS011;18502;43.574;1.276;2022-11-18T02:31:34;10.25;;;2.13;;
31978;SDS011;18502;43.574;1.276;2022-11-18T02:34:05;11.82;;;1.85;;
31978;SDS011;18502;43.574;1.276;2022-11-18T02:36:58;7.60;;;1.30;;
31978;SDS011;18502;43.574;1.276;2022-11-18T02:39:33;7.90;;;1.77;;
31978;SDS011;18502;43.574;1.276;2022-11-18T02:42:08;8.18;;;1.02;;
31978;SDS011;18502;43.574;1.276;2022-11-18T02:44:37;5.82;;;1.20;;
31978;SDS011;18502;43.574;1.276;2022-11-18T02:47:07;10.32;;;2.42;;
31978;SDS011;18502;43.574;1.276;2022-11-18T02:49:39;11.00;;;1.40;;
31978;SDS011;18502;43.574;1.276;2022-11-18T02:52:08;7.93;;;1.60;;
31978;SDS011;18502;43.574;1.276;2022-11-18T02:54:36;9.15;;;1.60;;
31978;SDS011;18502;43.574;1.276;2022-11-18T02:57:04;12.48;;;1.30;;
31978;SDS011;18502;43.574;1.276;2022-11-18T02:59:32;9.27;;;1.13;;
31978;SDS011;18502;43.574;1.276;2022-11-18T03:01:58;12.23;;;1.63;;
31978;SDS011;18502;43.574;1.276;2022-11-18T03:04:24;7.95;;;1.30;;
31978;SDS011;18502;43.574;1.276;2022-11-18T03:09:35;8.48;;;2.13;;
31978;SDS011;18502;43.574;1.276;2022-11-18T03:20:29;7.80;;;1.20;;
31978;SDS011;18502;43.574;1.276;2022-11-18T03:23:13;8.65;;;1.33;;
31978;SDS011;18502;43.574;1.276;2022-11-18T03:26:04;6.60;;;1.38;;
31978;SDS011;18502;43.574;1.276;2022-11-18T03:28:58;9.27;;;1.17;;
31978;SDS011;18502;43.574;1.276;2022-11-18T03:31:28;16.35;;;1.40;;
31978;SDS011;18502;43.574;1.276;2022-11-18T03:36:42;10.65;;;1.23;;
31978;SDS011;18502;43.574;1.276;2022-11-18T03:39:12;10.82;;;2.20;;
31978;SDS011;18502;43.574;1.276;2022-11-18T03:41:50;14.70;;;1.75;;
31978;SDS011;18502;43.574;1.276;2022-11-18T03:44:21;5.72;;;1.27;;
31978;SDS011;18502;43.574;1.276;2022-11-18T03:47:11;12.45;;;1.10;;
31978;SDS011;18502;43.574;1.276;2022-11-18T03:52:40;13.65;;;1.98;;
31978;SDS011;18502;43.574;1.276;2022-11-18T03:55:11;8.80;;;1.05;;
31978;SDS011;18502;43.574;1.276;2022-11-18T03:57:49;8.65;;;0.90;;
31978;SDS011;18502;43.574;1.276;2022-11-18T04:00:37;6.72;;;1.45;;
31978;SDS011;18502;43.574;1.276;2022-11-18T04:03:06;9.65;;;0.90;;
31978;SDS011;18502;43.574;1.276;2022-11-18T04:05:32;8.82;;;1.67;;
31978;SDS011;18502;43.574;1.276;2022-11-18T04:10:34;11.82;;;1.02;;
31978;SDS011;18502;43.574;1.276;2022-11-18T04:13:12;8.18;;;1.30;;
31978;SDS011;18502;43.574;1.276;2022-11-18T04:15:45;10.55;;;1.13;;
31978;SDS011;18502;43.574;1.276;2022-11-18T04:18:11;6.47;;;1.50;;
31978;SDS011;18502;43.574;1.276;2022-11-18T04:20:37;5.88;;;1.08;;
31978;SDS011;18502;43.574;1.276;2022-11-18T04:23:03;11.15;;;1.27;;
31978;SDS011;18502;43.574;1.276;2022-11-18T04:25:30;11.02;;;1.33;;
31978;SDS011;18502;43.574;1.276;2022-11-18T04:27:56;12.10;;;2.08;;
31978;SDS011;18502;43.574;1.276;2022-11-18T04:30:21;12.75;;;1.25;;
31978;SDS011;18502;43.574;1.276;2022-11-18T04:32:47;7.53;;;0.80;;
31978;SDS011;18502;43.574;1.276;2022-11-18T04:35:13;9.57;;;1.08;;
31978;SDS011;18502;43.574;1.276;2022-11-18T04:37:39;5.00;;;0.77;;
31978;SDS011;18502;43.574;1.276;2022-11-18T04:40:05;4.50;;;0.98;;
31978;SDS011;18502;43.574;1.276;2022-11-18T04:42:31;6.65;;;1.10;;
31978;SDS011;18502;43.574;1.276;2022-11-18T04:44:57;9.60;;;0.95;;
31978;SDS011;18502;43.574;1.276;2022-11-18T04:47:23;8.95;;;0.88;;
31978;SDS011;18502;43.574;1.276;2022-11-18T04:49:49;8.88;;;1.70;;
31978;SDS011;18502;43.574;1.276;2022-11-18T04:52:15;6.45;;;0.60;;
31978;SDS011;18502;43.574;1.276;2022-11-18T04:54:40;9.85;;;1.80;;
31978;SDS011;18502;43.574;1.276;2022-11-18T04:57:06;9.00;;;0.90;;
31978;SDS011;18502;43.574;1.276;2022-11-18T04:59:32;8.38;;;0.90;;
31978;SDS011;18502;43.574;1.276;2022-11-18T05:01:58;10.82;;;1.30;;
31978;SDS011;18502;43.574;1.276;2022-11-18T05:04:26;6.78;;;0.95;;
31978;SDS011;18502;43.574;1.276;2022-11-18T05:06:54;12.35;;;1.67;;
31978;SDS011;18502;43.574;1.276;2022-11-18T05:09:20;5.93;;;0.93;;
31978;SDS011;18502;43.574;1.276;2022-11-18T05:11:46;6.05;;;1.10;;
31978;SDS011;18502;43.574;1.276;2022-11-18T05:14:31;13.13;;;1.45;;
31978;SDS011;18502;43.574;1.276;2022-11-18T05:16:58;7.10;;;1.02;;
31978;SDS011;18502;43.574;1.276;2022-11-18T05:19:24;9.07;;;1.08;;
31978;SDS011;18502;43.574;1.276;2022-11-18T05:21:50;9.82;;;1.10;;
31978;SDS011;18502;43.574;1.276;2022-11-18T05:24:16;4.22;;;1.02;;
31978;SDS011;18502;43.574;1.276;2022-11-18T05:26:42;12.55;;;1.35;;
31978;SDS011;18502;43.574;1.276;2022-11-18T05:29:07;7.95;;;1.17;;
31978;SDS011;18502;43.574;1.276;2022-11-18T05:31:33;9.55;;;1.25;;
31978;SDS011;18502;43.574;1.276;2022-11-18T05:33:59;6.15;;;1.20;;
31978;SDS011;18502;43.574;1.276;2022-11-18T05:36:25;5.10;;;1.27;;
31978;SDS011;18502;43.574;1.276;2022-11-18T05:38:50;7.43;;;1.50;;
31978;SDS011;18502;43.574;1.276;2022-11-18T05:41:16;15.63;;;1.80;;
31978;SDS011;18502;43.574;1.276;2022-11-18T05:44:09;8.85;;;1.60;;
31978;SDS011;18502;43.574;1.276;2022-11-18T05:46:35;10.00;;;1.00;;
31978;SDS011;18502;43.574;1.276;2022-11-18T05:49:00;5.88;;;1.30;;
31978;SDS011;18502;43.574;1.276;2022-11-18T05:51:26;5.18;;;1.00;;
31978;SDS011;18502;43.574;1.276;2022-11-18T05:53:52;5.80;;;1.15;;
31978;SDS011;18502;43.574;1.276;2022-11-18T05:56:21;7.95;;;1.80;;
31978;SDS011;18502;43.574;1.276;2022-11-18T05:59:00;4.20;;;0.93;;
31978;SDS011;18502;43.574;1.276;2022-11-18T06:01:30;5.97;;;1.00;;
31978;SDS011;18502;43.574;1.276;2022-11-18T06:04:19;6.65;;;1.10;;
31978;SDS011;18502;43.574;1.276;2022-11-18T06:07:05;5.32;;;1.00;;
31978;SDS011;18502;43.574;1.276;2022-11-18T06:09:36;6.10;;;1.00;;
31978;SDS011;18502;43.574;1.276;2022-11-18T06:12:06;8.48;;;1.00;;
31978;SDS011;18502;43.574;1.276;2022-11-18T06:14:35;7.47;;;1.23;;
31978;SDS011;18502;43.574;1.276;2022-11-18T06:17:07;8.68;;;1.27;;
31978;SDS011;18502;43.574;1.276;2022-11-18T06:19:38;7.18;;;0.82;;
31978;SDS011;18502;43.574;1.276;2022-11-18T06:22:04;4.15;;;0.88;;
31978;SDS011;18502;43.574;1.276;2022-11-18T06:24:31;7.80;;;1.45;;
31978;SDS011;18502;43.574;1.276;2022-11-18T06:26:57;8.43;;;1.00;;
31978;SDS011;18502;43.574;1.276;2022-11-18T06:29:23;8.70;;;1.65;;
31978;SDS011;18502;43.574;1.276;2022-11-18T06:31:49;8.38;;;0.98;;
31978;SDS011;18502;43.574;1.276;2022-11-18T06:34:15;7.10;;;1.10;;
31978;SDS011;18502;43.574;1.276;2022-11-18T06:36:41;7.82;;;1.20;;
31978;SDS011;18502;43.574;1.276;2022-11-18T06:39:06;5.85;;;0.90;;
31978;SDS011;18502;43.574;1.276;2022-11-18T06:41:32;10.02;;;1.50;;
31978;SDS011;18502;43.574;1.276;2022-11-18T06:43:58;8.90;;;1.20;;
31978;SDS011;18502;43.574;1.276;2022-11-18T06:46:24;6.35;;;1.10;;
31978;SDS011;18502;43.574;1.276;2022-11-18T06:49:08;6.63;;;0.93;;
31978;SDS011;18502;43.574;1.276;2022-11-18T06:51:34;8.73;;;1.15;;
31978;SDS011;18502;43.574;1.276;2022-11-18T06:54:00;9.48;;;2.20;;
31978;SDS011;18502;43.574;1.276;2022-11-18T06:56:26;4.97;;;1.10;;
31978;SDS011;18502;43.574;1.276;2022-11-18T06:58:52;13.88;;;1.42;;
31978;SDS011;18502;43.574;1.276;2022-11-18T07:01:20;10.52;;;1.10;;
31978;SDS011;18502;43.574;1.276;2022-11-18T07:03:47;6.97;;;0.90;;
31978;SDS011;18502;43.574;1.276;2022-11-18T07:06:16;7.25;;;1.27;;
31978;SDS011;18502;43.574;1.276;2022-11-18T07:08:43;6.10;;;1.17;;
31978;SDS011;18502;43.574;1.276;2022-11-18T07:11:10;6.45;;;1.67;;
31978;SDS011;18502;43.574;1.276;2022-11-18T07:13:40;7.25;;;1.33;;
31978;SDS011;18502;43.574;1.276;2022-11-18T07:16:10;5.85;;;1.20;;
31978;SDS011;18502;43.574;1.276;2022-11-18T07:18:38;4.60;;;1.23;;
31978;SDS011;18502;43.574;1.276;2022-11-18T07:21:16;7.35;;;1.42;;
31978;SDS011;18502;43.574;1.276;2022-11-18T07:23:43;9.82;;;1.17;;
31978;SDS011;18502;43.574;1.276;2022-11-18T07:26:09;8.77;;;1.38;;
31978;SDS011;18502;43.574;1.276;2022-11-18T07:28:36;7.60;;;1.70;;
31978;SDS011;18502;43.574;1.276;2022-11-18T07:31:06;9.18;;;2.05;;
31978;SDS011;18502;43.574;1.276;2022-11-18T07:33:35;8.82;;;2.50;;
31978;SDS011;18502;43.574;1.276;2022-11-18T07:36:02;10.68;;;2.85;;
31978;SDS011;18502;43.574;1.276;2022-11-18T07:38:30;7.05;;;1.42;;
31978;SDS011;18502;43.574;1.276;2022-11-18T07:41:03;6.93;;;1.45;;
31978;SDS011;18502;43.574;1.276;2022-11-18T07:43:32;10.43;;;1.52;;
31978;SDS011;18502;43.574;1.276;2022-11-18T07:46:06;7.28;;;1.20;;
31978;SDS011;18502;43.574;1.276;2022-11-18T07:51:16;8.73;;;1.55;;
31978;SDS011;18502;43.574;1.276;2022-11-18T07:53:43;8.45;;;1.77;;
31978;SDS011;18502;43.574;1.276;2022-11-18T07:56:10;8.40;;;2.05;;
31978;SDS011;18502;43.574;1.276;2022-11-18T07:58:36;7.38;;;1.02;;
31978;SDS011;18502;43.574;1.276;2022-11-18T08:01:09;9.82;;;1.55;;
31978;SDS011;18502;43.574;1.276;2022-11-18T08:03:36;2.95;;;1.02;;
31978;SDS011;18502;43.574;1.276;2022-11-18T08:06:02;10.80;;;2.28;;
31978;SDS011;18502;43.574;1.276;2022-11-18T08:08:29;13.40;;;2.50;;
31978;SDS011;18502;43.574;1.276;2022-11-18T08:10:58;12.63;;;1.50;;
31978;SDS011;18502;43.574;1.276;2022-11-18T08:13:25;14.98;;;1.60;;
31978;SDS011;18502;43.574;1.276;2022-11-18T08:15:51;12.18;;;1.38;;
31978;SDS011;18502;43.574;1.276;2022-11-18T08:18:18;9.60;;;1.63;;
31978;SDS011;18502;43.574;1.276;2022-11-18T08:20:44;14.10;;;1.35;;
31978;SDS011;18502;43.574;1.276;2022-11-18T08:23:10;6.28;;;1.77;;
31978;SDS011;18502;43.574;1.276;2022-11-18T08:25:36;8.63;;;1.42;;
31978;SDS011;18502;43.574;1.276;2022-11-18T08:28:02;7.72;;;1.17;;
31978;SDS011;18502;43.574;1.276;2022-11-18T08:30:28;8.05;;;1.42;;
31978;SDS011;18502;43.574;1.276;2022-11-18T08:32:54;10.23;;;1.38;;
31978;SDS011;18502;43.574;1.276;2022-11-18T08:35:19;7.80;;;1.30;;
31978;SDS011;18502;43.574;1.276;2022-11-18T08:37:45;5.63;;;0.90;;
31978;SDS011;18502;43.574;1.276;2022-11-18T08:40:11;4.05;;;1.25;;
31978;SDS011;18502;43.574;1.276;2022-11-18T08:42:37;8.40;;;1.20;;
31978;SDS011;18502;43.574;1.276;2022-11-18T08:45:06;7.05;;;1.00;;
31978;SDS011;18502;43.574;1.276;2022-11-18T08:47:35;8.73;;;1.05;;
31978;SDS011;18502;43.574;1.276;2022-11-18T08:50:02;7.75;;;1.08;;
31978;SDS011;18502;43.574;1.276;2022-11-18T08:52:30;3.92;;;0.80;;
31978;SDS011;18502;43.574;1.276;2022-11-18T08:54:55;3.55;;;0.98;;
31978;SDS011;18502;43.574;1.276;2022-11-18T08:57:21;3.03;;;0.55;;
31978;SDS011;18502;43.574;1.276;2022-11-18T08:59:47;4.28;;;0.98;;
31978;SDS011;18502;43.574;1.276;2022-11-18T09:02:17;5.55;;;0.93;;
31978;SDS011;18502;43.574;1.276;2022-11-18T09:04:45;5.72;;;0.70;;
31978;SDS011;18502;43.574;1.276;2022-11-18T09:07:11;6.15;;;0.73;;
31978;SDS011;18502;43.574;1.276;2022-11-18T09:09:37;3.38;;;0.70;;
31978;SDS011;18502;43.574;1.276;2022-11-18T09:12:03;6.13;;;0.80;;
31978;SDS011;18502;43.574;1.276;2022-11-18T09:14:29;6.18;;;1.00;;
31978;SDS011;18502;43.574;1.276;2022-11-18T09:16:55;10.30;;;0.98;;
31978;SDS011;18502;43.574;1.276;2022-11-18T09:19:21;6.38;;;1.30;;
31978;SDS011;18502;43.574;1.276;2022-11-18T09:21:47;5.90;;;0.70;;
31978;SDS011;18502;43.574;1.276;2022-11-18T09:24:12;3.97;;;1.50;;
31978;SDS011;18502;43.574;1.276;2022-11-18T09:26:38;5.18;;;0.95;;
31978;SDS011;18502;43.574;1.276;2022-11-18T09:29:04;5.60;;;0.70;;
31978;SDS011;18502;43.574;1.276;2022-11-18T09:31:29;4.32;;;1.33;;
31978;SDS011;18502;43.574;1.276;2022-11-18T09:33:57;7.25;;;0.95;;
31978;SDS011;18502;43.574;1.276;2022-11-18T09:36:24;3.58;;;1.13;;
31978;SDS011;18502;43.574;1.276;2022-11-18T09:38:50;4.70;;;0.60;;
31978;SDS011;18502;43.574;1.276;2022-11-18T09:41:40;2.88;;;0.60;;
31978;SDS011;18502;43.574;1.276;2022-11-18T09:47:27;4.00;;;0.50;;
31978;SDS011;18502;43.574;1.276;2022-11-18T09:49:58;4.43;;;0.93;;
31978;SDS011;18502;43.574;1.276;2022-11-18T09:52:30;3.05;;;0.73;;
31978;SDS011;18502;43.574;1.276;2022-11-18T09:55:12;4.82;;;0.70;;
31978;SDS011;18502;43.574;1.276;2022-11-18T09:57:41;5.47;;;0.88;;
31978;SDS011;18502;43.574;1.276;2022-11-18T10:00:18;6.65;;;1.33;;
31978;SDS011;18502;43.574;1.276;2022-11-18T10:05:48;2.97;;;0.73;;
31978;SDS011;18502;43.574;1.276;2022-11-18T10:08:22;3.35;;;0.88;;
31978;SDS011;18502;43.574;1.276;2022-11-18T10:13:47;9.95;;;1.92;;
31978;SDS011;18502;43.574;1.276;2022-11-18T10:19:20;8.98;;;1.45;;
31978;SDS011;18502;43.574;1.276;2022-11-18T10:22:09;4.25;;;1.05;;
31978;SDS011;18502;43.574;1.276;2022-11-18T10:24:38;2.35;;;0.93;;
31978;SDS011;18502;43.574;1.276;2022-11-18T10:27:16;5.65;;;1.50;;
31978;SDS011;18502;43.574;1.276;2022-11-18T10:29:43;3.53;;;0.90;;
31978;SDS011;18502;43.574;1.276;2022-11-18T10:32:15;6.13;;;0.83;;
31978;SDS011;18502;43.574;1.276;2022-11-18T10:34:46;4.93;;;0.80;;
31978;SDS011;18502;43.574;1.276;2022-11-18T10:39:56;5.63;;;1.15;;
31978;SDS011;18502;43.574;1.276;2022-11-18T10:42:27;6.75;;;1.42;;
31978;SDS011;18502;43.574;1.276;2022-11-18T10:50:39;4.65;;;0.80;;
31978;SDS011;18502;43.574;1.276;2022-11-18T10:55:58;2.80;;;0.70;;
31978;SDS011;18502;43.574;1.276;2022-11-18T10:58:25;4.65;;;0.55;;
31978;SDS011;18502;43.574;1.276;2022-11-18T11:01:02;3.88;;;0.57;;
31978;SDS011;18502;43.574;1.276;2022-11-18T11:03:32;6.18;;;0.80;;
31978;SDS011;18502;43.574;1.276;2022-11-18T11:11:29;5.60;;;0.90;;
31978;SDS011;18502;43.574;1.276;2022-11-18T11:13:59;3.88;;;0.85;;
31978;SDS011;18502;43.574;1.276;2022-11-18T11:16:32;4.07;;;1.20;;
31978;SDS011;18502;43.574;1.276;2022-11-18T11:19:05;5.30;;;0.52;;
31978;SDS011;18502;43.574;1.276;2022-11-18T11:21:36;1.98;;;0.50;;
31978;SDS011;18502;43.574;1.276;2022-11-18T11:24:02;3.55;;;0.60;;
31978;SDS011;18502;43.574;1.276;2022-11-18T11:40:52;1.20;;;0.55;;
31978;SDS011;18502;43.574;1.276;2022-11-18T11:46:46;3.15;;;1.02;;
31978;SDS011;18502;43.574;1.276;2022-11-18T12:01:04;1.75;;;0.70;;
31978;SDS011;18502;43.574;1.276;2022-11-18T12:03:45;1.90;;;0.50;;
31978;SDS011;18502;43.574;1.276;2022-11-18T12:06:14;2.15;;;0.65;;
31978;SDS011;18502;43.574;1.276;2022-11-18T12:09:14;3.88;;;1.00;;
31978;SDS011;18502;43.574;1.276;2022-11-18T12:17:14;4.68;;;0.60;;
31978;SDS011;18502;43.574;1.276;2022-11-18T12:19:47;2.38;;;0.50;;
31978;SDS011;18502;43.574;1.276;2022-11-18T12:22:13;3.78;;;0.82;;
31978;SDS011;18502;43.574;1.276;2022-11-18T12:24:39;1.40;;;0.63;;
31978;SDS011;18502;43.574;1.276;2022-11-18T12:29:41;3.78;;;0.85;;
31978;SDS011;18502;43.574;1.276;2022-11-18T12:32:23;3.03;;;0.60;;
31978;SDS011;18502;43.574;1.276;2022-11-18T12:34:56;3.65;;;0.50;;
31978;SDS011;18502;43.574;1.276;2022-11-18T12:53:51;3.50;;;0.82;;
31978;SDS011;18502;43.574;1.276;2022-11-18T12:58:50;2.05;;;0.70;;
31978;SDS011;18502;43.574;1.276;2022-11-18T13:01:18;4.13;;;0.93;;
31978;SDS011;18502;43.574;1.276;2022-11-18T13:03:50;2.70;;;0.80;;
31978;SDS011;18502;43.574;1.276;2022-11-18T13:06:27;2.90;;;0.85;;
31978;SDS011;18502;43.574;1.276;2022-11-18T13:08:56;1.90;;;0.50;;
31978;SDS011;18502;43.574;1.276;2022-11-18T13:11:27;2.50;;;0.70;;
31978;SDS011;18502;43.574;1.276;2022-11-18T13:14:29;3.70;;;0.60;;
31978;SDS011;18502;43.574;1.276;2022-11-18T13:17:29;5.57;;;0.80;;
31978;SDS011;18502;43.574;1.276;2022-11-18T13:22:55;4.15;;;1.00;;
31978;SDS011;18502;43.574;1.276;2022-11-18T13:25:41;3.42;;;0.50;;
31978;SDS011;18502;43.574;1.276;2022-11-18T13:30:35;5.70;;;0.77;;
31978;SDS011;18502;43.574;1.276;2022-11-18T13:33:09;2.38;;;0.45;;
31978;SDS011;18502;43.574;1.276;2022-11-18T13:35:35;4.93;;;1.20;;
31978;SDS011;18502;43.574;1.276;2022-11-18T13:38:04;3.63;;;0.50;;
31978;SDS011;18502;43.574;1.276;2022-11-18T13:40:38;3.28;;;0.60;;
31978;SDS011;18502;43.574;1.276;2022-11-18T13:43:27;4.40;;;0.63;;
31978;SDS011;18502;43.574;1.276;2022-11-18T13:45:54;4.22;;;0.60;;
31978;SDS011;18502;43.574;1.276;2022-11-18T13:48:20;5.57;;;0.65;;
31978;SDS011;18502;43.574;1.276;2022-11-18T13:50:46;4.90;;;0.90;;
31978;SDS011;18502;43.574;1.276;2022-11-18T13:55:53;6.18;;;1.02;;
31978;SDS011;18502;43.574;1.276;2022-11-18T13:58:32;4.50;;;0.75;;
31978;SDS011;18502;43.574;1.276;2022-11-18T14:01:02;5.13;;;1.23;;
31978;SDS011;18502;43.574;1.276;2022-11-18T14:06:52;5.88;;;1.30;;
31978;SDS011;18502;43.574;1.276;2022-11-18T14:12:36;5.65;;;1.17;;
31978;SDS011;18502;43.574;1.276;2022-11-18T14:14:38;7.47;;;1.92;;
31978;SDS011;18502;43.574;1.276;2022-11-18T14:17:16;3.10;;;0.80;;
31978;SDS011;18502;43.574;1.276;2022-11-18T14:19:46;6.68;;;1.52;;
31978;SDS011;18502;43.574;1.276;2022-11-18T14:22:25;3.25;;;1.30;;
31978;SDS011;18502;43.574;1.276;2022-11-18T14:24:55;6.00;;;1.00;;
31978;SDS011;18502;43.574;1.276;2022-11-18T14:27:36;3.33;;;1.48;;
31978;SDS011;18502;43.574;1.276;2022-11-18T14:30:25;3.50;;;0.98;;
31978;SDS011;18502;43.574;1.276;2022-11-18T14:33:02;2.08;;;0.85;;
31978;SDS011;18502;43.574;1.276;2022-11-18T14:35:28;2.65;;;1.00;;
31978;SDS011;18502;43.574;1.276;2022-11-18T14:37:54;3.15;;;0.75;;
31978;SDS011;18502;43.574;1.276;2022-11-18T14:40:19;3.17;;;0.90;;
31978;SDS011;18502;43.574;1.276;2022-11-18T14:42:45;2.88;;;0.65;;
31978;SDS011;18502;43.574;1.276;2022-11-18T14:45:11;1.90;;;0.85;;
31978;SDS011;18502;43.574;1.276;2022-11-18T14:47:36;3.47;;;0.68;;
31978;SDS011;18502;43.574;1.276;2022-11-18T14:50:10;2.88;;;0.90;;
31978;SDS011;18502;43.574;1.276;2022-11-18T14:52:37;5.63;;;1.45;;
31978;SDS011;18502;43.574;1.276;2022-11-18T14:55:02;4.90;;;0.80;;
31978;SDS011;18502;43.574;1.276;2022-11-18T14:57:28;3.05;;;0.95;;
31978;SDS011;18502;43.574;1.276;2022-11-18T14:59:54;3.97;;;0.65;;
31978;SDS011;18502;43.574;1.276;2022-11-18T15:02:19;1.88;;;0.70;;
31978;SDS011;18502;43.574;1.276;2022-11-18T15:04:45;4.22;;;0.50;;
31978;SDS011;18502;43.574;1.276;2022-11-18T15:07:12;4.07;;;1.20;;
31978;SDS011;18502;43.574;1.276;2022-11-18T15:09:39;3.90;;;0.80;;
31978;SDS011;18502;43.574;1.276;2022-11-18T15:12:05;3.90;;;0.88;;
31978;SDS011;18502;43.574;1.276;2022-11-18T15:14:30;1.77;;;0.60;;
31978;SDS011;18502;43.574;1.276;2022-11-18T15:16:56;5.03;;;0.60;;
31978;SDS011;18502;43.574;1.276;2022-11-18T15:19:22;2.47;;;0.60;;
31978;SDS011;18502;43.574;1.276;2022-11-18T15:21:47;1.63;;;0.60;;
31978;SDS011;18502;43.574;1.276;2022-11-18T15:24:13;3.58;;;0.57;;
31978;SDS011;18502;43.574;1.276;2022-11-18T15:26:43;1.27;;;0.40;;
31978;SDS011;18502;43.574;1.276;2022-11-18T15:29:15;3.42;;;0.60;;
31978;SDS011;18502;43.574;1.276;2022-11-18T15:31:46;3.85;;;0.50;;
31978;SDS011;18502;43.574;1.276;2022-11-18T15:34:13;1.48;;;0.40;;
31978;SDS011;18502;43.574;1.276;2022-11-18T15:36:39;4.70;;;0.60;;
31978;SDS011;18502;43.574;1.276;2022-11-18T15:39:07;1.95;;;0.60;;
31978;SDS011;18502;43.574;1.276;2022-11-18T15:41:34;5.03;;;0.73;;
31978;SDS011;18502;43.574;1.276;2022-11-18T15:44:00;3.50;;;0.77;;
31978;SDS011;18502;43.574;1.276;2022-11-18T15:46:27;3.45;;;0.60;;
31978;SDS011;18502;43.574;1.276;2022-11-18T15:48:54;6.35;;;0.90;;
31978;SDS011;18502;43.574;1.276;2022-11-18T15:51:21;1.27;;;0.60;;
31978;SDS011;18502;43.574;1.276;2022-11-18T15:53:48;2.95;;;1.00;;
31978;SDS011;18502;43.574;1.276;2022-11-18T15:58:43;5.85;;;0.90;;
31978;SDS011;18502;43.574;1.276;2022-11-18T16:01:10;4.25;;;0.85;;
31978;SDS011;18502;43.574;1.276;2022-11-18T16:03:36;2.25;;;0.98;;
31978;SDS011;18502;43.574;1.276;2022-11-18T16:06:02;4.65;;;0.60;;
31978;SDS011;18502;43.574;1.276;2022-11-18T16:08:28;3.67;;;0.90;;
31978;SDS011;18502;43.574;1.276;2022-11-18T16:10:55;4.40;;;0.70;;
31978;SDS011;18502;43.574;1.276;2022-11-18T16:13:39;1.17;;;0.55;;
31978;SDS011;18502;43.574;1.276;2022-11-18T16:16:05;1.42;;;0.73;;
31978;SDS011;18502;43.574;1.276;2022-11-18T16:18:31;2.95;;;0.60;;
31978;SDS011;18502;43.574;1.276;2022-11-18T16:20:57;2.35;;;0.70;;
31978;SDS011;18502;43.574;1.276;2022-11-18T16:23:24;1.77;;;0.70;;
31978;SDS011;18502;43.574;1.276;2022-11-18T16:25:52;1.95;;;0.60;;
31978;SDS011;18502;43.574;1.276;2022-11-18T16:28:17;1.85;;;0.50;;
31978;SDS011;18502;43.574;1.276;2022-11-18T16:30:49;3.25;;;0.80;;
31978;SDS011;18502;43.574;1.276;2022-11-18T16:33:33;3.75;;;1.23;;
31978;SDS011;18502;43.574;1.276;2022-11-18T16:35:59;3.80;;;1.20;;
31978;SDS011;18502;43.574;1.276;2022-11-18T16:38:25;3.20;;;1.27;;
31978;SDS011;18502;43.574;1.276;2022-11-18T16:40:57;3.10;;;0.77;;
31978;SDS011;18502;43.574;1.276;2022-11-18T16:43:24;3.92;;;2.00;;
31978;SDS011;18502;43.574;1.276;2022-11-18T16:45:51;6.22;;;2.55;;
31978;SDS011;18502;43.574;1.276;2022-11-18T16:48:18;7.13;;;2.10;;
31978;SDS011;18502;43.574;1.276;2022-11-18T16:50:44;3.88;;;1.48;;
31978;SDS011;18502;43.574;1.276;2022-11-18T16:53:10;4.38;;;1.00;;
31978;SDS011;18502;43.574;1.276;2022-11-18T16:55:35;1.55;;;0.98;;
31978;SDS011;18502;43.574;1.276;2022-11-18T16:58:01;4.88;;;1.27;;
31978;SDS011;18502;43.574;1.276;2022-11-18T17:00:27;2.65;;;1.17;;
31978;SDS011;18502;43.574;1.276;2022-11-18T17:02:52;6.45;;;1.55;;
31978;SDS011;18502;43.574;1.276;2022-11-18T17:05:18;5.60;;;2.05;;
31978;SDS011;18502;43.574;1.276;2022-11-18T17:07:43;8.55;;;3.45;;
31978;SDS011;18502;43.574;1.276;2022-11-18T17:10:09;5.97;;;1.40;;
31978;SDS011;18502;43.574;1.276;2022-11-18T17:12:44;2.88;;;1.75;;
31978;SDS011;18502;43.574;1.276;2022-11-18T17:15:11;5.43;;;1.60;;
31978;SDS011;18502;43.574;1.276;2022-11-18T17:17:38;11.30;;;4.47;;